Time;durP1;ratioP1;P1;durP2;ratioP2;P2;SDS_P1;SDS_P2;PMS_P1;PMS_P2;Temp;Humidity;BMP_temperature;BMP_pressure;BME280_temperature;BME280_humidity;BME280_pressure;Samples;Min_cycle;Max_cycle;Signal;HPM_P1;HPM_P2
2021/12/25 00:04:10;;;;;;;4.40;1.20;;;;;;;-0.16;100.00;99130.16;10504836;28;1072380;-68
2021/12/25 00:09:14;;;;;;;4.13;1.43;;;;;;;-0.25;100.00;99135.13;10543492;28;20544;-65
2021/12/25 00:14:17;;;;;;;3.27;1.17;;;;;;;-0.27;100.00;99166.50;10542901;28;20310;-68
2021/12/25 00:19:22;;;;;;;3.90;1.47;;;;;;;-0.24;100.00;99172.50;10543337;28;20243;-64
2021/12/25 00:24:25;;;;;;;3.53;1.13;;;;;;;-0.20;100.00;99189.56;10540880;28;20658;-67
2021/12/25 00:29:48;;;;;;;6.13;1.50;;;;;;;-0.25;100.00;99214.13;10539713;28;20218;-67
2021/12/25 00:34:53;;;;;;;2.97;1.00;;;;;;;-0.31;100.00;99226.78;10540557;28;20273;-66
2021/12/25 00:39:56;;;;;;;4.67;1.30;;;;;;;-0.40;100.00;99246.19;10542540;28;20216;-68
2021/12/25 00:44:59;;;;;;;4.23;1.47;;;;;;;-0.33;100.00;99255.63;10542373;28;20556;-68
2021/12/25 00:50:06;;;;;;;4.67;1.47;;;;;;;-0.45;100.00;99261.38;10543849;28;20274;-70
2021/12/25 00:55:09;;;;;;;4.27;1.70;;;;;;;-0.45;100.00;99274.13;10550927;28;20211;-72
2021/12/25 01:00:15;;;;;;;3.60;1.00;;;;;;;-0.43;100.00;99292.84;10550800;28;20677;-66
2021/12/25 01:05:20;;;;;;;4.53;1.20;;;;;;;-0.44;100.00;99306.44;10550449;28;20668;-63
2021/12/25 01:10:23;;;;;;;4.57;1.20;;;;;;;-0.50;100.00;99311.41;10550664;28;20192;-66
2021/12/25 01:15:35;;;;;;;5.43;1.67;;;;;;;-0.63;100.00;99324.78;10549951;28;20230;-68
2021/12/25 01:21:04;;;;;;;4.00;1.33;;;;;;;-0.70;100.00;99356.06;10549978;28;20883;-66
2021/12/25 01:31:32;;;;;;;5.23;1.10;;;;;;;-0.92;100.00;99381.97;10536889;28;20235;-66
2021/12/25 01:36:48;;;;;;;4.17;1.23;;;;;;;-0.98;100.00;99402.22;10549415;28;20219;-67
2021/12/25 01:42:08;;;;;;;5.27;1.20;;;;;;;-1.06;100.00;99413.06;10549097;28;20525;-68
2021/12/25 01:52:34;;;;;;;6.23;1.30;;;;;;;-1.25;100.00;99432.19;10548679;28;20215;-65
2021/12/25 01:57:38;;;;;;;2.70;0.90;;;;;;;-1.37;100.00;99439.56;10548448;28;20669;-65
2021/12/25 02:02:41;;;;;;;4.10;1.20;;;;;;;-1.41;100.00;99453.91;10548153;28;20226;-65
2021/12/25 02:07:47;;;;;;;2.63;0.70;;;;;;;-1.60;100.00;99449.22;10548027;28;20570;-66
2021/12/25 02:12:50;;;;;;;3.97;1.00;;;;;;;-1.81;100.00;99474.13;10548091;28;20227;-67
2021/12/25 02:18:21;;;;;;;5.47;0.90;;;;;;;-1.93;100.00;99489.09;10547606;28;20215;-64
2021/12/25 02:23:26;;;;;;;4.17;1.00;;;;;;;-1.92;100.00;99511.16;10547407;28;20226;-66
2021/12/25 02:28:30;;;;;;;4.30;0.80;;;;;;;-2.04;100.00;99509.97;10547260;28;20220;-64
2021/12/25 02:33:35;;;;;;;3.43;0.97;;;;;;;-2.07;100.00;99517.53;10547152;28;20215;-67
2021/12/25 02:38:40;;;;;;;2.67;0.70;;;;;;;-1.98;100.00;99520.28;10546953;28;20231;-63
2021/12/25 02:43:46;;;;;;;3.57;1.00;;;;;;;-2.18;100.00;99536.72;10546734;28;20225;-65
2021/12/25 02:48:49;;;;;;;4.17;1.00;;;;;;;-2.27;100.00;99556.78;10546617;28;20219;-67
2021/12/25 02:53:54;;;;;;;3.57;1.00;;;;;;;-2.37;100.00;99563.31;10546141;28;20657;-68
2021/12/25 02:58:57;;;;;;;4.90;1.53;;;;;;;-2.51;100.00;99562.91;10546189;28;20303;-66
2021/12/25 03:04:00;;;;;;;2.60;0.80;;;;;;;-2.48;100.00;99580.78;10545751;28;20276;-64
2021/12/25 03:09:06;;;;;;;3.70;0.70;;;;;;;-2.57;100.00;99579.66;10545510;28;20306;-69
2021/12/25 03:14:35;;;;;;;23.17;8.03;;;;;;;-2.63;100.00;99600.66;10544594;28;20229;-67
2021/12/25 03:19:36;;;;;;;3.27;1.37;;;;;;;-2.73;100.00;99598.66;10545272;28;20305;-65
2021/12/25 03:24:40;;;;;;;2.90;0.80;;;;;;;-2.70;100.00;99611.44;10544919;28;20547;-64
2021/12/25 03:29:44;;;;;;;2.73;0.73;;;;;;;-2.84;100.00;99621.97;10544904;28;20229;-70
2021/12/25 03:34:47;;;;;;;2.60;0.80;;;;;;;-2.80;100.00;99631.44;10544494;28;20559;-66
2021/12/25 03:39:51;;;;;;;3.03;1.30;;;;;;;-2.95;100.00;99643.66;10544651;28;20669;-66
2021/12/25 03:44:56;;;;;;;5.40;0.90;;;;;;;-3.05;100.00;99654.28;10544282;28;20295;-65
2021/12/25 04:00:44;;;;;;;3.60;1.10;;;;;;;-3.43;100.00;99686.03;10543899;28;20216;-68
2021/12/25 04:05:49;;;;;;;5.30;1.93;;;;;;;-3.57;100.00;99689.75;10543267;28;20243;-66
2021/12/25 04:11:01;;;;;;;3.20;0.90;;;;;;;-3.91;100.00;99713.06;10543571;28;20212;-66
2021/12/25 04:16:04;;;;;;;5.93;1.40;;;;;;;-3.84;100.00;99724.28;10543522;28;20215;-65
2021/12/25 04:21:07;;;;;;;3.43;1.00;;;;;;;-4.06;100.00;99734.44;10543749;28;20227;-64
2021/12/25 04:26:13;;;;;;;7.33;1.30;;;;;;;-4.21;100.00;99737.25;10542904;28;20219;-67
2021/12/25 04:31:32;;;;;;;3.90;0.77;;;;;;;-4.07;100.00;99745.38;10542988;28;20294;-66
2021/12/25 05:03:38;;;;;;;3.73;1.10;;;;;;;-4.26;100.00;99798.69;10542063;28;20665;-65
2021/12/25 05:08:41;;;;;;;3.83;1.20;;;;;;;-4.33;100.00;99796.72;10541828;28;20229;-66
2021/12/25 05:13:48;;;;;;;15.20;6.47;;;;;;;-4.37;100.00;99810.03;10542417;28;20709;-65
2021/12/25 05:18:52;;;;;;;3.90;1.10;;;;;;;-4.43;100.00;99808.13;10541576;28;20667;-72
2021/12/25 05:23:57;;;;;;;4.50;1.30;;;;;;;-4.33;100.00;99811.91;10541402;28;20310;-64
2021/12/25 05:29:02;;;;;;;3.43;1.37;;;;;;;-4.19;100.00;99810.75;10541602;28;20227;-68
2021/12/25 05:34:06;;;;;;;5.70;1.77;;;;;;;-4.37;100.00;99823.59;10541689;28;20212;-68
2021/12/25 05:39:12;;;;;;;6.23;1.73;;;;;;;-4.39;100.00;99842.91;10547467;28;20533;-68
2021/12/25 05:44:17;;;;;;;20.93;8.90;;;;;;;-4.51;100.00;99846.59;10548846;28;20227;-68
2021/12/25 05:49:21;;;;;;;4.80;1.60;;;;;;;-4.65;100.00;99853.63;10549230;28;20279;-63
2021/12/25 05:54:24;;;;;;;3.77;1.43;;;;;;;-4.50;100.00;99861.84;10549100;28;20216;-66
2021/12/25 05:59:29;;;;;;;7.00;1.60;;;;;;;-4.55;100.00;99865.00;10548540;28;20674;-64
2021/12/25 06:04:34;;;;;;;6.93;2.20;;;;;;;-4.69;100.00;99877.06;10548807;28;20235;-68
2021/12/25 06:09:38;;;;;;;5.93;2.10;;;;;;;-4.96;100.00;99881.84;10548267;28;20229;-68
2021/12/25 06:14:44;;;;;;;6.20;1.80;;;;;;;-5.04;100.00;99893.28;10547741;28;20226;-66
2021/12/25 06:19:48;;;;;;;5.60;1.83;;;;;;;-5.14;100.00;99900.44;10547720;28;20219;-63
2021/12/25 06:24:51;;;;;;;4.47;1.77;;;;;;;-5.20;100.00;99903.53;10547328;28;20219;-64
2021/12/25 06:29:57;;;;;;;6.93;1.60;;;;;;;-5.25;100.00;99922.72;10547447;28;20552;-62
2021/12/25 06:35:00;;;;;;;8.67;1.83;;;;;;;-5.47;100.00;99935.16;10546967;28;20693;-68
2021/12/25 06:40:05;;;;;;;7.17;1.87;;;;;;;-5.47;100.00;99939.38;10546927;28;20526;-66
2021/12/25 06:45:10;;;;;;;6.73;2.30;;;;;;;-5.60;100.00;99942.09;10546508;28;20524;-68
2021/12/25 06:50:14;;;;;;;5.67;1.90;;;;;;;-5.71;100.00;99948.34;10545955;28;20219;-65
2021/12/25 06:55:17;;;;;;;4.77;1.93;;;;;;;-5.64;100.00;99951.19;10546233;28;20207;-65
2021/12/25 07:00:22;;;;;;;7.37;2.30;;;;;;;-5.65;100.00;99959.59;10546069;28;20551;-68
2021/12/25 07:05:26;;;;;;;8.50;2.83;;;;;;;-5.79;100.00;99957.19;10545625;28;20231;-68
2021/12/25 07:10:29;;;;;;;11.87;4.00;;;;;;;-5.50;100.00;99957.75;10546109;28;20237;-66
2021/12/25 07:15:34;;;;;;;7.97;2.10;;;;;;;-5.42;100.00;99968.25;10545513;28;20260;-68
2021/12/25 07:20:37;;;;;;;5.73;1.87;;;;;;;-5.49;100.00;99973.81;10543562;28;20228;-66
2021/12/25 07:25:41;;;;;;;6.43;2.33;;;;;;;-5.65;100.00;99982.31;10541999;28;20215;-66
2021/12/25 07:30:45;;;;;;;11.40;3.80;;;;;;;-5.38;100.00;99986.13;10541712;28;20208;-69
2021/12/25 07:35:49;;;;;;;7.23;2.80;;;;;;;-5.37;100.00;99987.88;10541506;28;20228;-70
2021/12/25 07:40:52;;;;;;;6.43;2.20;;;;;;;-5.67;100.00;99991.50;10541317;28;20208;-67
2021/12/25 07:45:57;;;;;;;8.17;2.47;;;;;;;-5.59;100.00;99995.22;10541255;28;20575;-68
2021/12/25 07:51:02;;;;;;;14.83;4.97;;;;;;;-5.59;100.00;99994.38;10541074;28;20215;-66
2021/12/25 07:56:05;;;;;;;11.97;2.40;;;;;;;-5.48;100.00;100013.44;10540866;28;20225;-66
2021/12/25 08:01:11;;;;;;;8.67;2.57;;;;;;;-5.40;100.00;100017.22;10540286;28;20217;-64
2021/12/25 08:06:14;;;;;;;5.87;2.60;;;;;;;-5.22;100.00;100011.34;10540463;28;20322;-66
2021/12/25 08:11:18;;;;;;;8.33;2.60;;;;;;;-5.01;100.00;100017.38;10540528;28;20298;-65
2021/12/25 08:16:26;;;;;;;10.83;2.90;;;;;;;-4.88;100.00;100031.44;10539822;28;20668;-65
2021/12/25 08:21:29;;;;;;;10.60;3.27;;;;;;;-5.01;100.00;100029.16;10540487;28;20268;-65
2021/12/25 08:26:33;;;;;;;11.00;3.87;;;;;;;-4.99;100.00;100042.75;10539645;28;20673;-66
2021/12/25 08:31:37;;;;;;;7.80;2.93;;;;;;;-5.01;100.00;100045.22;10539628;28;20710;-67
2021/12/25 08:36:41;;;;;;;7.13;2.97;;;;;;;-4.94;100.00;100049.75;10539304;28;20572;-67
2021/12/25 08:41:44;;;;;;;6.17;2.13;;;;;;;-4.71;100.00;100058.34;10539267;28;20215;-67
2021/12/25 08:46:56;;;;;;;8.00;3.33;;;;;;;-4.95;100.00;100059.78;10539017;28;20222;-64
2021/12/25 08:52:01;;;;;;;5.93;2.73;;;;;;;-4.79;100.00;100068.16;10539081;28;20223;-65
2021/12/25 08:57:07;;;;;;;9.77;3.80;;;;;;;-4.35;100.00;100069.25;10538918;28;20225;-66
2021/12/25 09:02:15;;;;;;;9.23;3.00;;;;;;;-4.05;100.00;100071.44;10539026;28;20215;-65
2021/12/25 09:07:19;;;;;;;9.30;3.57;;;;;;;-4.10;100.00;100077.97;10189591;27;9999898;-66
2021/12/25 09:12:24;;;;;;;12.37;3.47;;;;;;;-3.91;100.00;100072.00;10584286;28;20780;-68
2021/12/25 09:17:28;;;;;;;9.63;3.97;;;;;;;-3.82;100.00;100074.94;10589431;28;20319;-70
2021/12/25 09:22:33;;;;;;;10.53;4.03;;;;;;;-4.18;100.00;100071.72;10588818;28;20228;-64
2021/12/25 09:27:36;;;;;;;12.90;4.67;;;;;;;-4.09;100.00;100071.25;10589259;28;20337;-66
2021/12/25 09:32:44;;;;;;;11.37;4.30;;;;;;;-4.15;100.00;100078.56;10589242;28;20226;-68
2021/12/25 09:37:47;;;;;;;10.77;4.23;;;;;;;-4.10;100.00;100077.09;10591851;28;20317;-67
2021/12/25 09:42:50;;;;;;;9.03;3.60;;;;;;;-3.98;100.00;100097.91;10592352;28;20199;-71
2021/12/25 09:47:55;;;;;;;10.43;4.63;;;;;;;-3.98;100.00;100083.56;10591084;28;20223;-66
2021/12/25 09:52:58;;;;;;;15.70;4.73;;;;;;;-3.64;100.00;100086.69;10590930;28;20228;-71
2021/12/25 09:58:02;;;;;;;15.50;5.03;;;;;;;-3.60;100.00;100085.16;10591051;28;20309;-71
2021/12/25 10:03:07;;;;;;;10.90;4.77;;;;;;;-3.28;100.00;100077.19;10591122;28;20221;-66
2021/12/25 10:08:12;;;;;;;9.77;4.07;;;;;;;-2.96;100.00;100084.38;10590044;28;20239;-67
2021/12/25 10:13:22;;;;;;;9.80;5.07;;;;;;;-2.41;100.00;100085.66;10590421;28;20670;-68
2021/12/25 10:18:29;;;;;;;13.70;5.00;;;;;;;-1.88;100.00;100086.69;10590003;28;20545;-67
2021/12/25 10:23:36;;;;;;;15.63;6.03;;;;;;;-1.73;100.00;100079.56;10566780;28;20272;-69
2021/12/25 10:28:40;;;;;;;14.13;4.97;;;;;;;-1.16;98.44;100084.88;10547406;28;20226;-68
2021/12/25 10:33:50;;;;;;;11.17;5.13;;;;;;;-1.16;94.30;100081.47;10547189;28;20721;-68
2021/12/25 10:39:04;;;;;;;13.87;5.67;;;;;;;-0.50;92.43;100080.97;10547687;28;20219;-66
2021/12/25 10:44:15;;;;;;;14.70;5.80;;;;;;;-0.27;91.57;100079.94;10544440;28;20717;-68
2021/12/25 10:49:20;;;;;;;15.40;5.27;;;;;;;-0.01;86.17;100066.22;10544787;28;20626;-64
2021/12/25 10:54:37;;;;;;;13.20;4.90;;;;;;;0.88;85.12;100072.75;10546206;28;20733;-69
2021/12/25 10:59:45;;;;;;;12.87;5.43;;;;;;;0.86;83.24;100070.13;10546139;28;20233;-68
2021/12/25 11:04:50;;;;;;;12.40;5.10;;;;;;;1.62;80.48;100075.28;10545976;28;20238;-72
2021/12/25 11:10:07;;;;;;;14.10;6.27;;;;;;;2.03;78.06;100079.53;10545872;28;20219;-64
2021/12/25 11:15:17;;;;;;;13.40;5.73;;;;;;;2.15;75.93;100077.19;10545817;28;20225;-69
2021/12/25 11:20:30;;;;;;;12.63;5.30;;;;;;;2.29;74.16;100068.06;10545382;28;20231;-67
2021/12/25 11:25:35;;;;;;;12.63;5.23;;;;;;;2.02;72.95;100072.66;10544927;28;20211;-66
2021/12/25 11:30:40;;;;;;;17.53;6.07;;;;;;;2.87;73.66;100074.16;10544599;28;20527;-66
2021/12/25 11:35:45;;;;;;;14.77;5.33;;;;;;;3.03;70.83;100074.44;10544071;28;20728;-67
2021/12/25 11:40:53;;;;;;;15.67;5.93;;;;;;;2.79;71.55;100080.88;10544495;28;20533;-69
2021/12/25 11:45:56;;;;;;;14.03;6.30;;;;;;;2.91;69.27;100075.94;10544361;28;20219;-68
2021/12/25 11:51:01;;;;;;;15.07;5.90;;;;;;;2.81;71.77;100074.94;10544169;28;20226;-66
2021/12/25 12:01:34;;;;;;;14.63;5.43;;;;;;;2.45;69.14;100088.81;10543703;28;20219;-66
2021/12/25 12:07:01;;;;;;;17.80;7.97;;;;;;;2.14;69.94;100080.56;10543404;28;20235;-67
2021/12/25 12:12:19;;;;;;;14.80;5.77;;;;;;;2.15;72.68;100074.63;10543560;28;20613;-67
2021/12/25 12:17:30;;;;;;;12.87;5.37;;;;;;;2.19;73.50;100062.75;10543319;28;20245;-68
2021/12/25 12:22:54;;;;;;;13.10;5.93;;;;;;;1.49;74.26;100074.97;10543384;28;20700;-64
2021/12/25 12:28:00;;;;;;;16.87;5.77;;;;;;;1.55;73.80;100086.22;10542920;28;20231;-63
2021/12/25 12:33:25;;;;;;;11.33;5.60;;;;;;;1.26;74.34;100091.50;10542947;28;20231;-65
2021/12/25 12:38:37;;;;;;;10.50;5.40;;;;;;;1.01;76.42;100107.97;10542060;28;20231;-67
2021/12/25 12:44:03;;;;;;;11.93;5.40;;;;;;;0.33;77.36;100113.91;10542342;28;20633;-68
2021/12/25 12:49:07;;;;;;;13.17;5.63;;;;;;;-0.48;81.74;100122.66;10541252;28;20200;-69
2021/12/25 12:54:39;;;;;;;11.33;5.40;;;;;;;-0.85;83.29;100122.38;10542076;28;20188;-66
2021/12/25 12:59:43;;;;;;;12.87;5.33;;;;;;;-1.12;87.36;100126.56;10541803;28;20225;-71
2021/12/25 13:04:51;;;;;;;14.27;5.27;;;;;;;-1.43;87.87;100131.47;10540413;28;20219;-66
2021/12/25 13:10:06;;;;;;;15.73;5.20;;;;;;;-1.63;89.54;100145.19;10541879;28;20192;-67
2021/12/25 13:15:15;;;;;;;17.43;6.20;;;;;;;-1.84;91.54;100146.97;10542239;28;20549;-72
2021/12/25 13:20:32;;;;;;;17.87;5.90;;;;;;;-2.07;92.85;100150.41;10541861;28;20306;-65
2021/12/25 13:25:44;;;;;;;19.03;6.87;;;;;;;-2.16;92.07;100153.47;10541311;28;20215;-66
2021/12/25 13:30:51;;;;;;;15.00;6.10;;;;;;;-2.29;94.13;100166.53;10541385;28;20219;-66
2021/12/25 13:36:04;;;;;;;17.33;6.80;;;;;;;-2.19;94.24;100172.84;10541740;28;20218;-65
2021/12/25 13:41:09;;;;;;;18.23;6.37;;;;;;;-2.37;95.93;100175.53;10541177;28;20227;-66
2021/12/25 13:46:12;;;;;;;20.00;6.73;;;;;;;-2.62;96.39;100178.81;10540998;28;20224;-69
2021/12/25 13:51:15;;;;;;;16.40;5.93;;;;;;;-2.62;97.62;100172.84;10541287;28;20226;-69
2021/12/25 13:56:19;;;;;;;15.90;6.10;;;;;;;-2.69;98.75;100179.38;10541132;28;20242;-65
2021/12/25 14:01:23;;;;;;;18.43;5.97;;;;;;;-2.90;99.94;100191.22;10548090;28;20701;-66
2021/12/25 14:06:26;;;;;;;14.53;6.33;;;;;;;-2.91;100.00;100194.56;10548031;28;20272;-68
2021/12/25 14:11:31;;;;;;;18.60;7.63;;;;;;;-3.00;100.00;100196.72;10548055;28;20223;-62
2021/12/25 14:16:37;;;;;;;15.67;6.33;;;;;;;-2.89;100.00;100195.50;10547905;28;20216;-65
2021/12/25 14:21:41;;;;;;;14.50;5.90;;;;;;;-3.33;100.00;100202.94;10547731;28;20543;-65
2021/12/25 14:26:47;;;;;;;13.03;6.20;;;;;;;-3.32;100.00;100197.09;10547099;28;20216;-67
2021/12/25 14:31:50;;;;;;;14.57;5.30;;;;;;;-3.43;100.00;100216.06;10547132;28;20680;-65
2021/12/25 14:36:54;;;;;;;17.60;6.83;;;;;;;-3.50;100.00;100224.19;10547335;28;20292;-67
2021/12/25 14:42:01;;;;;;;16.10;6.70;;;;;;;-3.47;100.00;100221.81;10546769;28;20231;-66
2021/12/25 14:47:08;;;;;;;13.27;6.00;;;;;;;-3.45;100.00;100234.56;10546402;28;20720;-67
2021/12/25 14:52:12;;;;;;;15.00;6.30;;;;;;;-3.52;100.00;100226.66;10546777;28;20294;-65
2021/12/25 14:57:24;;;;;;;16.60;6.87;;;;;;;-3.65;100.00;100228.63;10546279;28;20223;-65
2021/12/25 15:02:28;;;;;;;21.10;7.03;;;;;;;-3.81;100.00;100233.81;10545855;28;20219;-65
2021/12/25 15:07:34;;;;;;;19.77;6.30;;;;;;;-3.94;100.00;100223.94;10545413;28;20605;-67
2021/12/25 15:12:41;;;;;;;19.47;7.50;;;;;;;-3.91;100.00;100229.13;10544871;28;20241;-68
2021/12/25 15:17:46;;;;;;;17.73;6.43;;;;;;;-4.07;100.00;100245.31;10545216;28;20216;-67
2021/12/25 15:22:49;;;;;;;22.97;7.37;;;;;;;-3.95;100.00;100253.47;10545173;28;20228;-70
2021/12/25 15:27:57;;;;;;;18.70;7.40;;;;;;;-3.90;100.00;100256.22;10545274;28;20227;-64
2021/12/25 15:33:06;;;;;;;16.03;6.60;;;;;;;-3.94;100.00;100251.81;10545439;28;20216;-66
2021/12/25 15:38:13;;;;;;;16.83;6.37;;;;;;;-4.07;100.00;100252.06;10544592;28;20243;-65
2021/12/25 15:43:19;;;;;;;20.40;6.80;;;;;;;-4.12;100.00;100248.44;10544511;28;20544;-65
2021/12/25 15:48:22;;;;;;;15.77;6.07;;;;;;;-4.25;100.00;100247.03;10544191;28;20221;-66
2021/12/25 15:53:25;;;;;;;19.20;8.10;;;;;;;-4.19;100.00;100252.34;10544458;28;20207;-66
2021/12/25 15:58:30;;;;;;;18.87;7.07;;;;;;;-4.21;100.00;100264.06;10543827;28;20238;-62
2021/12/25 16:03:33;;;;;;;16.67;6.40;;;;;;;-4.38;100.00;100253.97;10543402;28;20226;-66
2021/12/25 16:08:37;;;;;;;16.70;6.00;;;;;;;-4.24;100.00;100275.72;10543264;28;20724;-65
2021/12/25 16:13:42;;;;;;;16.63;6.13;;;;;;;-4.20;100.00;100270.00;10543585;28;20231;-70
2021/12/25 16:18:49;;;;;;;15.97;7.50;;;;;;;-4.24;100.00;100278.25;10543343;28;20301;-65
2021/12/25 16:23:52;;;;;;;17.17;6.73;;;;;;;-4.28;100.00;100277.25;10542765;28;20208;-65
2021/12/25 16:28:57;;;;;;;19.00;7.43;;;;;;;-4.53;100.00;100291.22;10542668;28;20306;-64
2021/12/25 16:34:01;;;;;;;16.67;5.90;;;;;;;-4.30;100.00;100293.19;10542756;28;20223;-65
2021/12/25 16:39:07;;;;;;;21.03;7.37;;;;;;;-4.37;100.00;100304.69;10542514;28;20226;-68
2021/12/25 16:44:14;;;;;;;23.27;7.33;;;;;;;-4.38;100.00;100297.03;10542250;28;20215;-68
2021/12/25 16:49:19;;;;;;;21.50;7.50;;;;;;;-4.28;100.00;100307.63;10542357;28;20211;-68
2021/12/25 16:54:25;;;;;;;15.70;6.40;;;;;;;-4.28;100.00;100300.03;10542243;28;20548;-67
2021/12/25 16:59:32;;;;;;;18.27;7.00;;;;;;;-4.17;100.00;100310.69;10542322;28;20233;-69
2021/12/25 17:04:35;;;;;;;20.23;7.27;;;;;;;-4.26;100.00;100311.13;10541848;28;20547;-67
2021/12/25 17:09:39;;;;;;;18.87;6.63;;;;;;;-4.16;100.00;100302.31;10541676;28;20215;-66
2021/12/25 17:14:44;;;;;;;22.07;8.37;;;;;;;-4.32;100.00;100310.84;10542100;28;20213;-66
2021/12/25 17:19:47;;;;;;;18.63;7.80;;;;;;;-4.46;100.00;100308.44;10541885;28;20300;-66
2021/12/25 17:24:53;;;;;;;23.97;8.70;;;;;;;-4.35;100.00;100313.25;10541630;28;20237;-65
2021/12/25 17:29:57;;;;;;;19.30;6.23;;;;;;;-4.34;100.00;100320.03;10541904;28;20225;-71
2021/12/25 17:35:01;;;;;;;22.00;7.87;;;;;;;-4.54;100.00;100310.63;10547929;28;20219;-65
2021/12/25 17:40:09;;;;;;;23.33;6.87;;;;;;;-4.57;100.00;100305.38;10549630;28;20233;-67
2021/12/25 17:45:17;;;;;;;22.03;8.50;;;;;;;-4.67;100.00;100305.75;10549069;28;20226;-65
2021/12/25 17:50:26;;;;;;;14.97;6.23;;;;;;;-4.68;100.00;100313.25;10549373;28;20381;-69
2021/12/25 17:55:30;;;;;;;20.10;8.13;;;;;;;-4.71;100.00;100324.09;10548522;28;20227;-66
2021/12/25 18:00:41;;;;;;;25.23;9.80;;;;;;;-4.71;100.00;100331.69;10546873;28;20215;-69
2021/12/25 18:05:48;;;;;;;19.10;8.03;;;;;;;-4.62;100.00;100322.00;10182132;27;10000005;-68
2021/12/25 18:10:55;;;;;;;19.67;6.37;;;;;;;-4.74;100.00;100322.28;10503027;28;20235;-65
2021/12/25 18:16:00;;;;;;;20.40;7.57;;;;;;;-4.58;100.00;100316.31;10502944;28;20287;-66
2021/12/25 18:21:04;;;;;;;19.03;6.70;;;;;;;-4.48;100.00;100327.75;10505331;28;20223;-65
2021/12/25 18:26:09;;;;;;;18.80;7.70;;;;;;;-4.60;100.00;100328.03;10516002;28;20267;-65
2021/12/25 18:31:15;;;;;;;22.23;7.73;;;;;;;-4.60;100.00;100329.69;10546951;28;20269;-66
2021/12/25 18:36:18;;;;;;;21.87;7.30;;;;;;;-4.71;100.00;100334.22;10547228;28;20659;-66
2021/12/25 18:41:26;;;;;;;18.87;7.70;;;;;;;-4.83;100.00;100333.59;10544682;28;20315;-66
2021/12/25 18:46:31;;;;;;;18.77;7.73;;;;;;;-4.71;100.00;100339.28;10543555;28;20238;-68
2021/12/25 18:51:35;;;;;;;21.20;7.57;;;;;;;-4.72;100.00;100332.50;10543575;28;20298;-64
2021/12/25 18:56:38;;;;;;;23.37;7.20;;;;;;;-4.65;100.00;100334.53;10543021;28;20201;-63
2021/12/25 19:01:43;;;;;;;23.10;8.37;;;;;;;-4.73;100.00;100346.78;10543298;28;20283;-63
2021/12/25 19:06:46;;;;;;;22.93;8.93;;;;;;;-4.69;100.00;100342.75;10543102;28;20224;-63
2021/12/25 19:11:50;;;;;;;21.53;7.83;;;;;;;-4.81;100.00;100334.56;10542633;28;20180;-65
2021/12/25 19:16:54;;;;;;;26.60;9.37;;;;;;;-4.77;100.00;100332.28;10542583;28;20652;-63
2021/12/25 19:21:58;;;;;;;29.47;9.97;;;;;;;-4.91;100.00;100333.25;10542105;28;20241;-65
2021/12/25 19:27:01;;;;;;;21.43;8.17;;;;;;;-4.97;100.00;100340.50;10208485;27;10000315;-65
2021/12/25 19:32:06;;;;;;;21.23;8.80;;;;;;;-4.92;100.00;100339.06;10584064;28;20617;-66
2021/12/25 19:37:10;;;;;;;24.50;9.27;;;;;;;-4.90;100.00;100339.19;10584831;27;20270;-64
2021/12/25 19:42:13;;;;;;;26.17;9.90;;;;;;;-5.11;100.00;100359.19;10583747;28;20225;-64
2021/12/25 19:47:18;;;;;;;26.20;9.93;;;;;;;-5.29;100.00;100352.31;10583461;28;20301;-66
2021/12/25 19:52:22;;;;;;;28.17;10.77;;;;;;;-5.22;100.00;100360.31;10582987;28;20219;-64
2021/12/25 19:57:26;;;;;;;23.47;10.20;;;;;;;-5.32;100.00;100358.09;10582953;28;20229;-64
2021/12/25 20:02:30;;;;;;;26.80;10.13;;;;;;;-5.19;100.00;100368.03;10582843;28;20542;-63
2021/12/25 20:07:34;;;;;;;37.50;11.47;;;;;;;-5.29;100.00;100359.88;10582345;28;20242;-65
2021/12/25 20:12:37;;;;;;;26.83;10.70;;;;;;;-5.29;100.00;100364.94;10582546;28;20609;-66
2021/12/25 20:17:42;;;;;;;22.33;9.33;;;;;;;-5.43;100.00;100374.34;10582583;28;20221;-68
2021/12/25 20:22:46;;;;;;;29.37;10.37;;;;;;;-5.23;100.00;100380.47;10585377;28;20244;-67
2021/12/25 20:27:52;;;;;;;27.07;10.30;;;;;;;-5.15;100.00;100380.06;10584828;28;20222;-67
2021/12/25 20:32:56;;;;;;;29.47;11.70;;;;;;;-5.25;100.00;100384.56;10581895;28;20648;-67
2021/12/25 20:38:00;;;;;;;24.97;10.93;;;;;;;-5.24;100.00;100384.63;10553931;28;20215;-67
2021/12/25 20:43:06;;;;;;;27.70;10.50;;;;;;;-5.41;100.00;100385.41;10539159;28;20676;-68
2021/12/25 20:48:12;;;;;;;30.73;9.87;;;;;;;-5.27;100.00;100389.53;10539154;28;20204;-67
2021/12/25 20:53:15;;;;;;;23.17;10.13;;;;;;;-5.40;100.00;100386.28;10538537;28;20227;-67
2021/12/25 20:58:20;;;;;;;30.00;9.93;;;;;;;-5.38;100.00;100382.16;10538909;28;20229;-65
2021/12/25 21:03:26;;;;;;;32.63;11.20;;;;;;;-5.38;100.00;100395.69;10537724;28;20223;-68
2021/12/25 21:08:29;;;;;;;26.07;10.67;;;;;;;-5.50;100.00;100406.78;10542833;28;20653;-66
2021/12/25 21:13:33;;;;;;;29.60;11.37;;;;;;;-5.53;100.00;100399.06;10547296;28;20246;-66
2021/12/25 21:18:38;;;;;;;26.40;12.77;;;;;;;-5.56;100.00;100399.78;10549052;28;20215;-70
2021/12/25 21:23:42;;;;;;;29.70;11.43;;;;;;;-5.49;100.00;100391.72;10550025;28;20230;-67
2021/12/25 21:28:45;;;;;;;27.07;11.47;;;;;;;-5.43;100.00;100394.56;10549899;28;20290;-68
2021/12/25 21:33:50;;;;;;;24.53;9.83;;;;;;;-5.46;100.00;100399.47;10549847;28;20215;-64
2021/12/25 21:38:54;;;;;;;28.07;11.30;;;;;;;-5.43;100.00;100406.34;10549332;28;20556;-70
2021/12/25 21:43:58;;;;;;;29.20;11.77;;;;;;;-5.64;100.00;100402.69;10549125;28;20219;-64
2021/12/25 21:49:06;;;;;;;28.47;11.20;;;;;;;-5.68;100.00;100403.28;10549085;28;20239;-66
2021/12/25 21:54:10;;;;;;;26.00;9.63;;;;;;;-5.76;100.00;100405.38;10548796;28;20302;-66
2021/12/25 21:59:14;;;;;;;30.57;10.93;;;;;;;-5.68;100.00;100416.81;10548793;28;20226;-67
2021/12/25 22:04:26;;;;;;;28.80;10.33;;;;;;;-5.62;100.00;100421.28;10548171;28;20245;-68
2021/12/25 22:09:30;;;;;;;30.13;10.57;;;;;;;-5.66;100.00;100420.25;10548143;28;20215;-67
2021/12/25 22:14:33;;;;;;;26.07;11.13;;;;;;;-5.72;100.00;100414.00;10548416;28;20219;-65
2021/12/25 22:19:38;;;;;;;33.87;11.70;;;;;;;-5.92;100.00;100405.38;10547364;28;20219;-67
2021/12/25 22:24:42;;;;;;;30.00;11.63;;;;;;;-5.60;100.00;100414.66;10547494;28;20247;-67
2021/12/25 22:29:45;;;;;;;25.70;9.97;;;;;;;-5.78;100.00;100413.69;10547894;28;20218;-66
2021/12/25 22:34:50;;;;;;;26.17;11.30;;;;;;;-5.84;100.00;100416.78;10547497;28;20226;-66
2021/12/25 22:39:53;;;;;;;27.47;10.97;;;;;;;-6.00;100.00;100409.13;10547286;28;20215;-67
2021/12/25 22:44:56;;;;;;;29.67;12.50;;;;;;;-6.01;100.00;100417.50;10546681;28;20230;-65
2021/12/25 22:50:03;;;;;;;28.83;11.00;;;;;;;-5.96;100.00;100428.72;10546706;28;20216;-69
2021/12/25 22:55:11;;;;;;;29.60;11.63;;;;;;;-6.03;100.00;100422.47;10546550;28;20690;-64
2021/12/25 23:00:20;;;;;;;31.63;10.67;;;;;;;-6.05;100.00;100430.72;10546139;28;20245;-67
2021/12/25 23:05:30;;;;;;;28.07;8.83;;;;;;;-5.89;100.00;100422.34;10545757;28;20550;-66
2021/12/25 23:10:33;;;;;;;28.03;10.60;;;;;;;-5.76;100.00;100425.59;10546024;28;20234;-64
2021/12/25 23:15:38;;;;;;;26.67;10.20;;;;;;;-5.75;100.00;100427.34;10545813;28;20226;-67
2021/12/25 23:20:45;;;;;;;25.03;10.83;;;;;;;-5.77;100.00;100423.00;10545566;28;20676;-67
2021/12/25 23:25:48;;;;;;;22.13;9.53;;;;;;;-5.86;100.00;100414.94;10545735;28;20223;-66
2021/12/25 23:30:54;;;;;;;23.70;11.00;;;;;;;-5.99;100.00;100421.00;10544593;28;20238;-65
2021/12/25 23:35:59;;;;;;;32.67;11.43;;;;;;;-5.82;100.00;100415.19;10545014;28;20227;-69
2021/12/25 23:41:04;;;;;;;29.80;11.97;;;;;;;-5.83;100.00;100415.13;10543999;28;20237;-66
2021/12/25 23:46:12;;;;;;;30.30;11.27;;;;;;;-5.81;100.00;100439.63;10544699;28;20230;-66
2021/12/25 23:51:17;;;;;;;26.83;10.67;;;;;;;-5.85;100.00;100430.22;10544107;28;20239;-68
2021/12/25 23:56:20;;;;;;;31.43;10.53;;;;;;;-5.83;100.00;100432.81;10544380;28;20672;-69
